sensor_id;sensor_type;location;lat;lon;timestamp;P1;durP1;ratioP1;P2;durP2;ratioP2
63016;SDS011;50274;45.640;11.756;2022-07-15T00:02:03;8.07;;;1.80;;
63016;SDS011;50274;45.640;11.756;2022-07-15T00:04:30;5.70;;;1.50;;
63016;SDS011;50274;45.640;11.756;2022-07-15T00:06:56;6.03;;;1.98;;
63016;SDS011;50274;45.640;11.756;2022-07-15T00:09:22;6.05;;;1.90;;
63016;SDS011;50274;45.640;11.756;2022-07-15T00:12:09;5.90;;;1.87;;
63016;SDS011;50274;45.640;11.756;2022-07-15T00:14:35;8.10;;;2.03;;
63016;SDS011;50274;45.640;11.756;2022-07-15T00:17:02;7.47;;;1.65;;
63016;SDS011;50274;45.640;11.756;2022-07-15T00:19:28;7.93;;;1.95;;
63016;SDS011;50274;45.640;11.756;2022-07-15T00:21:53;7.60;;;1.70;;
63016;SDS011;50274;45.640;11.756;2022-07-15T00:24:19;5.10;;;2.10;;
63016;SDS011;50274;45.640;11.756;2022-07-15T00:26:45;9.70;;;2.42;;
63016;SDS011;50274;45.640;11.756;2022-07-15T00:29:11;8.03;;;2.50;;
63016;SDS011;50274;45.640;11.756;2022-07-15T00:31:36;9.90;;;2.90;;
63016;SDS011;50274;45.640;11.756;2022-07-15T00:34:02;6.70;;;2.80;;
63016;SDS011;50274;45.640;11.756;2022-07-15T00:36:29;7.57;;;2.50;;
63016;SDS011;50274;45.640;11.756;2022-07-15T00:38:55;8.55;;;3.25;;
63016;SDS011;50274;45.640;11.756;2022-07-15T00:41:22;7.43;;;3.20;;
63016;SDS011;50274;45.640;11.756;2022-07-15T00:43:48;9.55;;;2.90;;
63016;SDS011;50274;45.640;11.756;2022-07-15T00:46:17;8.20;;;2.60;;
63016;SDS011;50274;45.640;11.756;2022-07-15T00:48:44;7.33;;;2.70;;
63016;SDS011;50274;45.640;11.756;2022-07-15T00:51:10;5.47;;;2.47;;
63016;SDS011;50274;45.640;11.756;2022-07-15T00:53:36;6.80;;;2.45;;
63016;SDS011;50274;45.640;11.756;2022-07-15T00:56:04;6.25;;;2.83;;
63016;SDS011;50274;45.640;11.756;2022-07-15T00:58:33;6.83;;;2.70;;
63016;SDS011;50274;45.640;11.756;2022-07-15T01:01:03;5.30;;;2.22;;
63016;SDS011;50274;45.640;11.756;2022-07-15T01:03:30;6.40;;;2.60;;
63016;SDS011;50274;45.640;11.756;2022-07-15T01:05:57;6.30;;;2.45;;
63016;SDS011;50274;45.640;11.756;2022-07-15T01:08:24;5.80;;;2.30;;
63016;SDS011;50274;45.640;11.756;2022-07-15T01:10:50;5.73;;;2.27;;
63016;SDS011;50274;45.640;11.756;2022-07-15T01:13:17;6.00;;;2.47;;
63016;SDS011;50274;45.640;11.756;2022-07-15T01:15:45;6.43;;;2.03;;
63016;SDS011;50274;45.640;11.756;2022-07-15T01:18:12;9.10;;;2.95;;
63016;SDS011;50274;45.640;11.756;2022-07-15T01:20:39;6.20;;;2.25;;
63016;SDS011;50274;45.640;11.756;2022-07-15T01:23:05;7.93;;;3.07;;
63016;SDS011;50274;45.640;11.756;2022-07-15T01:25:31;10.73;;;3.13;;
63016;SDS011;50274;45.640;11.756;2022-07-15T01:27:58;8.88;;;3.15;;
63016;SDS011;50274;45.640;11.756;2022-07-15T01:30:24;8.63;;;2.85;;
63016;SDS011;50274;45.640;11.756;2022-07-15T01:32:50;7.43;;;3.13;;
63016;SDS011;50274;45.640;11.756;2022-07-15T01:35:17;10.32;;;2.47;;
63016;SDS011;50274;45.640;11.756;2022-07-15T01:37:43;6.88;;;2.28;;
63016;SDS011;50274;45.640;11.756;2022-07-15T01:40:10;6.97;;;2.53;;
63016;SDS011;50274;45.640;11.756;2022-07-15T01:42:36;6.35;;;2.85;;
63016;SDS011;50274;45.640;11.756;2022-07-15T01:45:07;6.60;;;2.77;;
63016;SDS011;50274;45.640;11.756;2022-07-15T01:47:34;7.50;;;3.40;;
63016;SDS011;50274;45.640;11.756;2022-07-15T01:50:09;6.15;;;2.80;;
63016;SDS011;50274;45.640;11.756;2022-07-15T01:52:36;6.25;;;3.30;;
63016;SDS011;50274;45.640;11.756;2022-07-15T01:55:02;5.72;;;3.08;;
63016;SDS011;50274;45.640;11.756;2022-07-15T01:57:29;5.43;;;2.60;;
63016;SDS011;50274;45.640;11.756;2022-07-15T01:59:55;7.05;;;3.30;;
63016;SDS011;50274;45.640;11.756;2022-07-15T02:02:21;7.05;;;3.38;;
63016;SDS011;50274;45.640;11.756;2022-07-15T02:04:47;8.53;;;3.00;;
63016;SDS011;50274;45.640;11.756;2022-07-15T02:07:14;6.68;;;3.22;;
63016;SDS011;50274;45.640;11.756;2022-07-15T02:09:40;10.18;;;3.28;;
63016;SDS011;50274;45.640;11.756;2022-07-15T02:12:06;7.32;;;3.05;;
63016;SDS011;50274;45.640;11.756;2022-07-15T02:14:32;7.53;;;2.95;;
63016;SDS011;50274;45.640;11.756;2022-07-15T02:16:59;9.50;;;2.80;;
63016;SDS011;50274;45.640;11.756;2022-07-15T02:19:26;6.30;;;3.13;;
63016;SDS011;50274;45.640;11.756;2022-07-15T02:21:52;6.10;;;2.90;;
63016;SDS011;50274;45.640;11.756;2022-07-15T02:24:18;5.97;;;2.80;;
63016;SDS011;50274;45.640;11.756;2022-07-15T02:26:46;7.40;;;3.23;;
63016;SDS011;50274;45.640;11.756;2022-07-15T02:29:14;6.25;;;3.08;;
63016;SDS011;50274;45.640;11.756;2022-07-15T02:31:40;6.40;;;3.10;;
63016;SDS011;50274;45.640;11.756;2022-07-15T02:34:06;6.82;;;3.33;;
63016;SDS011;50274;45.640;11.756;2022-07-15T02:36:32;7.95;;;3.65;;
63016;SDS011;50274;45.640;11.756;2022-07-15T02:38:58;9.37;;;3.50;;
63016;SDS011;50274;45.640;11.756;2022-07-15T02:41:24;8.30;;;3.38;;
63016;SDS011;50274;45.640;11.756;2022-07-15T02:43:50;9.70;;;4.10;;
63016;SDS011;50274;45.640;11.756;2022-07-15T02:46:16;8.57;;;3.50;;
63016;SDS011;50274;45.640;11.756;2022-07-15T02:48:42;9.38;;;3.50;;
63016;SDS011;50274;45.640;11.756;2022-07-15T02:51:08;7.90;;;3.38;;
63016;SDS011;50274;45.640;11.756;2022-07-15T02:53:35;6.20;;;3.70;;
63016;SDS011;50274;45.640;11.756;2022-07-15T02:56:01;5.13;;;3.23;;
63016;SDS011;50274;45.640;11.756;2022-07-15T02:58:28;7.85;;;3.65;;
63016;SDS011;50274;45.640;11.756;2022-07-15T03:00:56;9.27;;;3.80;;
63016;SDS011;50274;45.640;11.756;2022-07-15T03:03:22;8.15;;;3.08;;
63016;SDS011;50274;45.640;11.756;2022-07-15T03:05:48;8.20;;;3.67;;
63016;SDS011;50274;45.640;11.756;2022-07-15T03:08:15;5.90;;;3.17;;
63016;SDS011;50274;45.640;11.756;2022-07-15T03:10:41;7.32;;;3.08;;
63016;SDS011;50274;45.640;11.756;2022-07-15T03:13:08;7.97;;;3.05;;
63016;SDS011;50274;45.640;11.756;2022-07-15T03:15:34;7.78;;;3.30;;
63016;SDS011;50274;45.640;11.756;2022-07-15T03:18:00;6.28;;;3.08;;
63016;SDS011;50274;45.640;11.756;2022-07-15T03:20:26;6.20;;;2.90;;
63016;SDS011;50274;45.640;11.756;2022-07-15T03:22:52;4.80;;;2.80;;
63016;SDS011;50274;45.640;11.756;2022-07-15T03:25:17;6.07;;;2.80;;
63016;SDS011;50274;45.640;11.756;2022-07-15T03:27:43;6.17;;;2.97;;
63016;SDS011;50274;45.640;11.756;2022-07-15T03:30:09;6.85;;;3.05;;
63016;SDS011;50274;45.640;11.756;2022-07-15T03:32:35;7.93;;;2.88;;
63016;SDS011;50274;45.640;11.756;2022-07-15T03:35:01;6.23;;;3.30;;
63016;SDS011;50274;45.640;11.756;2022-07-15T03:37:27;6.35;;;3.13;;
63016;SDS011;50274;45.640;11.756;2022-07-15T03:39:53;9.85;;;3.15;;
63016;SDS011;50274;45.640;11.756;2022-07-15T03:42:19;5.20;;;2.65;;
63016;SDS011;50274;45.640;11.756;2022-07-15T03:44:45;5.90;;;3.40;;
63016;SDS011;50274;45.640;11.756;2022-07-15T03:47:10;7.03;;;3.20;;
63016;SDS011;50274;45.640;11.756;2022-07-15T03:49:36;6.57;;;3.57;;
63016;SDS011;50274;45.640;11.756;2022-07-15T03:52:02;6.38;;;3.25;;
63016;SDS011;50274;45.640;11.756;2022-07-15T03:54:28;7.28;;;3.53;;
63016;SDS011;50274;45.640;11.756;2022-07-15T03:56:54;7.17;;;3.73;;
63016;SDS011;50274;45.640;11.756;2022-07-15T03:59:20;6.25;;;3.60;;
63016;SDS011;50274;45.640;11.756;2022-07-15T04:01:46;11.60;;;3.45;;
63016;SDS011;50274;45.640;11.756;2022-07-15T04:04:13;8.45;;;4.05;;
63016;SDS011;50274;45.640;11.756;2022-07-15T04:06:40;6.88;;;3.65;;
63016;SDS011;50274;45.640;11.756;2022-07-15T04:09:05;7.20;;;3.03;;
63016;SDS011;50274;45.640;11.756;2022-07-15T04:11:32;7.30;;;3.40;;
63016;SDS011;50274;45.640;11.756;2022-07-15T04:13:58;7.43;;;3.00;;
63016;SDS011;50274;45.640;11.756;2022-07-15T04:16:25;6.55;;;2.72;;
63016;SDS011;50274;45.640;11.756;2022-07-15T04:18:50;8.67;;;3.47;;
63016;SDS011;50274;45.640;11.756;2022-07-15T04:21:17;7.25;;;3.20;;
63016;SDS011;50274;45.640;11.756;2022-07-15T04:23:43;6.03;;;3.42;;
63016;SDS011;50274;45.640;11.756;2022-07-15T04:26:09;6.53;;;3.30;;
63016;SDS011;50274;45.640;11.756;2022-07-15T04:28:35;6.23;;;3.30;;
63016;SDS011;50274;45.640;11.756;2022-07-15T04:31:00;6.93;;;3.10;;
63016;SDS011;50274;45.640;11.756;2022-07-15T04:33:26;7.00;;;3.20;;
63016;SDS011;50274;45.640;11.756;2022-07-15T04:35:52;6.30;;;3.30;;
63016;SDS011;50274;45.640;11.756;2022-07-15T04:38:19;6.28;;;3.28;;
63016;SDS011;50274;45.640;11.756;2022-07-15T04:40:46;6.72;;;3.13;;
63016;SDS011;50274;45.640;11.756;2022-07-15T04:43:11;5.88;;;3.22;;
63016;SDS011;50274;45.640;11.756;2022-07-15T04:45:38;9.13;;;3.60;;
63016;SDS011;50274;45.640;11.756;2022-07-15T04:48:04;6.72;;;3.35;;
63016;SDS011;50274;45.640;11.756;2022-07-15T04:50:53;6.18;;;3.60;;
63016;SDS011;50274;45.640;11.756;2022-07-15T04:53:19;8.02;;;3.63;;
63016;SDS011;50274;45.640;11.756;2022-07-15T04:55:46;5.93;;;3.55;;
63016;SDS011;50274;45.640;11.756;2022-07-15T04:58:12;7.67;;;3.23;;
63016;SDS011;50274;45.640;11.756;2022-07-15T05:00:42;8.68;;;3.30;;
63016;SDS011;50274;45.640;11.756;2022-07-15T05:03:11;7.05;;;3.40;;
63016;SDS011;50274;45.640;11.756;2022-07-15T05:05:37;6.38;;;3.53;;
63016;SDS011;50274;45.640;11.756;2022-07-15T05:08:03;6.90;;;3.60;;
63016;SDS011;50274;45.640;11.756;2022-07-15T05:10:29;6.13;;;3.33;;
63016;SDS011;50274;45.640;11.756;2022-07-15T05:12:56;6.50;;;3.22;;
63016;SDS011;50274;45.640;11.756;2022-07-15T05:15:22;7.88;;;3.63;;
63016;SDS011;50274;45.640;11.756;2022-07-15T05:17:48;7.18;;;3.70;;
63016;SDS011;50274;45.640;11.756;2022-07-15T05:20:14;7.50;;;3.27;;
63016;SDS011;50274;45.640;11.756;2022-07-15T05:22:40;5.80;;;3.60;;
63016;SDS011;50274;45.640;11.756;2022-07-15T05:25:06;8.90;;;3.90;;
63016;SDS011;50274;45.640;11.756;2022-07-15T05:27:32;6.30;;;3.58;;
63016;SDS011;50274;45.640;11.756;2022-07-15T05:29:58;6.23;;;3.20;;
63016;SDS011;50274;45.640;11.756;2022-07-15T05:32:24;7.03;;;3.67;;
63016;SDS011;50274;45.640;11.756;2022-07-15T05:34:49;7.60;;;3.60;;
63016;SDS011;50274;45.640;11.756;2022-07-15T05:37:15;6.40;;;3.03;;
63016;SDS011;50274;45.640;11.756;2022-07-15T05:39:41;9.30;;;3.30;;
63016;SDS011;50274;45.640;11.756;2022-07-15T05:42:21;6.03;;;2.72;;
63016;SDS011;50274;45.640;11.756;2022-07-15T05:44:48;7.73;;;3.30;;
63016;SDS011;50274;45.640;11.756;2022-07-15T05:47:14;5.72;;;2.75;;
63016;SDS011;50274;45.640;11.756;2022-07-15T05:49:41;7.82;;;2.90;;
63016;SDS011;50274;45.640;11.756;2022-07-15T05:52:07;6.70;;;2.70;;
63016;SDS011;50274;45.640;11.756;2022-07-15T05:54:33;6.95;;;2.53;;
63016;SDS011;50274;45.640;11.756;2022-07-15T05:56:59;8.17;;;2.60;;
63016;SDS011;50274;45.640;11.756;2022-07-15T05:59:25;6.22;;;2.50;;
63016;SDS011;50274;45.640;11.756;2022-07-15T06:01:50;4.93;;;2.37;;
63016;SDS011;50274;45.640;11.756;2022-07-15T06:04:16;6.47;;;2.60;;
63016;SDS011;50274;45.640;11.756;2022-07-15T06:06:42;5.82;;;2.30;;
63016;SDS011;50274;45.640;11.756;2022-07-15T06:09:08;4.45;;;1.90;;
63016;SDS011;50274;45.640;11.756;2022-07-15T06:11:34;5.50;;;2.20;;
63016;SDS011;50274;45.640;11.756;2022-07-15T06:14:03;6.65;;;1.80;;
63016;SDS011;50274;45.640;11.756;2022-07-15T06:16:30;5.05;;;2.00;;
63016;SDS011;50274;45.640;11.756;2022-07-15T06:18:56;7.90;;;1.93;;
63016;SDS011;50274;45.640;11.756;2022-07-15T06:21:21;7.55;;;2.00;;
63016;SDS011;50274;45.640;11.756;2022-07-15T06:23:47;5.30;;;2.00;;
63016;SDS011;50274;45.640;11.756;2022-07-15T06:26:13;5.50;;;1.70;;
63016;SDS011;50274;45.640;11.756;2022-07-15T06:28:39;7.70;;;2.00;;
63016;SDS011;50274;45.640;11.756;2022-07-15T06:31:05;6.23;;;1.90;;
63016;SDS011;50274;45.640;11.756;2022-07-15T06:33:31;5.07;;;1.80;;
63016;SDS011;50274;45.640;11.756;2022-07-15T06:35:57;7.40;;;2.03;;
63016;SDS011;50274;45.640;11.756;2022-07-15T06:38:22;5.87;;;2.03;;
63016;SDS011;50274;45.640;11.756;2022-07-15T06:40:48;4.47;;;1.67;;
63016;SDS011;50274;45.640;11.756;2022-07-15T06:43:14;5.57;;;1.95;;
63016;SDS011;50274;45.640;11.756;2022-07-15T06:45:40;4.97;;;1.80;;
63016;SDS011;50274;45.640;11.756;2022-07-15T06:48:06;5.65;;;1.80;;
63016;SDS011;50274;45.640;11.756;2022-07-15T06:50:32;8.48;;;2.13;;
63016;SDS011;50274;45.640;11.756;2022-07-15T06:52:58;5.17;;;1.70;;
63016;SDS011;50274;45.640;11.756;2022-07-15T06:55:24;4.25;;;1.30;;
63016;SDS011;50274;45.640;11.756;2022-07-15T06:57:50;4.60;;;1.77;;
63016;SDS011;50274;45.640;11.756;2022-07-15T07:00:16;5.15;;;1.77;;
63016;SDS011;50274;45.640;11.756;2022-07-15T07:02:42;5.33;;;1.50;;
63016;SDS011;50274;45.640;11.756;2022-07-15T07:05:08;6.57;;;1.75;;
63016;SDS011;50274;45.640;11.756;2022-07-15T07:07:34;7.07;;;1.92;;
63016;SDS011;50274;45.640;11.756;2022-07-15T07:10:00;6.53;;;1.93;;
63016;SDS011;50274;45.640;11.756;2022-07-15T07:12:27;5.80;;;1.60;;
63016;SDS011;50274;45.640;11.756;2022-07-15T07:14:53;5.30;;;2.15;;
63016;SDS011;50274;45.640;11.756;2022-07-15T07:17:19;5.30;;;1.70;;
63016;SDS011;50274;45.640;11.756;2022-07-15T07:19:45;5.72;;;2.25;;
63016;SDS011;50274;45.640;11.756;2022-07-15T07:22:11;5.25;;;1.80;;
63016;SDS011;50274;45.640;11.756;2022-07-15T07:24:37;7.03;;;1.67;;
63016;SDS011;50274;45.640;11.756;2022-07-15T07:27:03;4.83;;;1.70;;
63016;SDS011;50274;45.640;11.756;2022-07-15T07:29:30;5.82;;;1.70;;
63016;SDS011;50274;45.640;11.756;2022-07-15T07:31:55;5.35;;;1.83;;
63016;SDS011;50274;45.640;11.756;2022-07-15T07:34:21;9.07;;;1.90;;
63016;SDS011;50274;45.640;11.756;2022-07-15T07:36:47;7.53;;;1.90;;
63016;SDS011;50274;45.640;11.756;2022-07-15T07:39:14;6.88;;;1.98;;
63016;SDS011;50274;45.640;11.756;2022-07-15T07:41:40;4.63;;;1.67;;
63016;SDS011;50274;45.640;11.756;2022-07-15T07:44:06;5.85;;;1.50;;
63016;SDS011;50274;45.640;11.756;2022-07-15T07:46:35;7.27;;;1.60;;
63016;SDS011;50274;45.640;11.756;2022-07-15T07:49:01;6.07;;;1.85;;
63016;SDS011;50274;45.640;11.756;2022-07-15T07:51:27;4.75;;;1.60;;
63016;SDS011;50274;45.640;11.756;2022-07-15T07:53:52;7.30;;;1.57;;
63016;SDS011;50274;45.640;11.756;2022-07-15T07:56:18;5.07;;;1.67;;
63016;SDS011;50274;45.640;11.756;2022-07-15T07:58:44;6.10;;;1.48;;
63016;SDS011;50274;45.640;11.756;2022-07-15T08:01:10;5.77;;;1.77;;
63016;SDS011;50274;45.640;11.756;2022-07-15T08:03:36;6.77;;;1.70;;
63016;SDS011;50274;45.640;11.756;2022-07-15T08:06:02;5.60;;;1.83;;
63016;SDS011;50274;45.640;11.756;2022-07-15T08:08:28;5.50;;;1.75;;
63016;SDS011;50274;45.640;11.756;2022-07-15T08:10:55;5.97;;;1.70;;
63016;SDS011;50274;45.640;11.756;2022-07-15T08:13:23;4.32;;;1.63;;
63016;SDS011;50274;45.640;11.756;2022-07-15T08:15:50;6.35;;;1.58;;
63016;SDS011;50274;45.640;11.756;2022-07-15T08:18:18;4.93;;;1.80;;
63016;SDS011;50274;45.640;11.756;2022-07-15T08:20:44;5.28;;;1.48;;
63016;SDS011;50274;45.640;11.756;2022-07-15T08:23:10;5.03;;;1.47;;
63016;SDS011;50274;45.640;11.756;2022-07-15T08:25:36;5.93;;;1.80;;
63016;SDS011;50274;45.640;11.756;2022-07-15T08:28:03;5.38;;;1.42;;
63016;SDS011;50274;45.640;11.756;2022-07-15T08:30:32;4.50;;;1.80;;
63016;SDS011;50274;45.640;11.756;2022-07-15T08:32:59;5.97;;;1.70;;
63016;SDS011;50274;45.640;11.756;2022-07-15T08:35:25;6.75;;;2.00;;
63016;SDS011;50274;45.640;11.756;2022-07-15T08:37:52;4.45;;;1.50;;
63016;SDS011;50274;45.640;11.756;2022-07-15T08:40:18;5.43;;;1.67;;
63016;SDS011;50274;45.640;11.756;2022-07-15T08:42:44;5.03;;;1.80;;
63016;SDS011;50274;45.640;11.756;2022-07-15T08:45:14;5.45;;;1.90;;
63016;SDS011;50274;45.640;11.756;2022-07-15T08:47:45;6.00;;;1.80;;
63016;SDS011;50274;45.640;11.756;2022-07-15T08:50:15;6.32;;;1.70;;
63016;SDS011;50274;45.640;11.756;2022-07-15T08:52:42;4.25;;;1.50;;
63016;SDS011;50274;45.640;11.756;2022-07-15T08:55:13;3.93;;;1.43;;
63016;SDS011;50274;45.640;11.756;2022-07-15T08:57:49;4.78;;;1.60;;
63016;SDS011;50274;45.640;11.756;2022-07-15T09:00:18;8.10;;;2.10;;
63016;SDS011;50274;45.640;11.756;2022-07-15T09:02:45;5.47;;;1.58;;
63016;SDS011;50274;45.640;11.756;2022-07-15T09:13:08;4.40;;;1.90;;
63016;SDS011;50274;45.640;11.756;2022-07-15T09:15:38;6.07;;;1.90;;
63016;SDS011;50274;45.640;11.756;2022-07-15T09:18:13;5.43;;;1.55;;
63016;SDS011;50274;45.640;11.756;2022-07-15T09:20:40;7.23;;;2.00;;
63016;SDS011;50274;45.640;11.756;2022-07-15T09:23:08;5.32;;;1.60;;
63016;SDS011;50274;45.640;11.756;2022-07-15T09:25:36;4.90;;;1.40;;
63016;SDS011;50274;45.640;11.756;2022-07-15T09:28:05;5.20;;;1.42;;
63016;SDS011;50274;45.640;11.756;2022-07-15T09:30:36;5.65;;;1.63;;
63016;SDS011;50274;45.640;11.756;2022-07-15T09:33:23;4.20;;;1.40;;
63016;SDS011;50274;45.640;11.756;2022-07-15T09:39:00;4.57;;;1.83;;
63016;SDS011;50274;45.640;11.756;2022-07-15T09:49:08;3.95;;;1.50;;
63016;SDS011;50274;45.640;11.756;2022-07-15T09:51:48;3.40;;;1.23;;
63016;SDS011;50274;45.640;11.756;2022-07-15T09:54:17;3.55;;;1.20;;
63016;SDS011;50274;45.640;11.756;2022-07-15T09:56:46;5.35;;;1.38;;
63016;SDS011;50274;45.640;11.756;2022-07-15T09:59:13;4.80;;;1.40;;
63016;SDS011;50274;45.640;11.756;2022-07-15T10:01:40;4.50;;;1.50;;
63016;SDS011;50274;45.640;11.756;2022-07-15T10:04:08;7.13;;;1.30;;
63016;SDS011;50274;45.640;11.756;2022-07-15T10:06:35;6.60;;;1.38;;
63016;SDS011;50274;45.640;11.756;2022-07-15T10:09:06;3.47;;;1.27;;
63016;SDS011;50274;45.640;11.756;2022-07-15T10:11:38;4.37;;;1.57;;
63016;SDS011;50274;45.640;11.756;2022-07-15T10:25:40;6.10;;;1.30;;
63016;SDS011;50274;45.640;11.756;2022-07-15T10:28:45;3.67;;;1.40;;
63016;SDS011;50274;45.640;11.756;2022-07-15T10:31:20;5.22;;;1.50;;
63016;SDS011;50274;45.640;11.756;2022-07-15T10:36:40;4.20;;;1.40;;
63016;SDS011;50274;45.640;11.756;2022-07-15T10:39:15;3.97;;;1.57;;
63016;SDS011;50274;45.640;11.756;2022-07-15T10:41:57;4.95;;;1.35;;
63016;SDS011;50274;45.640;11.756;2022-07-15T10:44:28;6.40;;;1.80;;
63016;SDS011;50274;45.640;11.756;2022-07-15T10:47:35;4.13;;;1.40;;
63016;SDS011;50274;45.640;11.756;2022-07-15T10:49:55;8.07;;;1.65;;
63016;SDS011;50274;45.640;11.756;2022-07-15T10:52:22;5.60;;;1.60;;
63016;SDS011;50274;45.640;11.756;2022-07-15T11:00:28;4.35;;;1.50;;
63016;SDS011;50274;45.640;11.756;2022-07-15T11:13:40;4.85;;;1.60;;
63016;SDS011;50274;45.640;11.756;2022-07-15T11:16:11;4.75;;;1.80;;
63016;SDS011;50274;45.640;11.756;2022-07-15T11:18:51;5.43;;;1.83;;
63016;SDS011;50274;45.640;11.756;2022-07-15T11:21:18;4.10;;;2.00;;
63016;SDS011;50274;45.640;11.756;2022-07-15T11:23:48;5.45;;;1.73;;
63016;SDS011;50274;45.640;11.756;2022-07-15T11:26:16;4.65;;;1.60;;
63016;SDS011;50274;45.640;11.756;2022-07-15T11:28:49;5.20;;;1.83;;
63016;SDS011;50274;45.640;11.756;2022-07-15T11:31:23;8.63;;;1.80;;
63016;SDS011;50274;45.640;11.756;2022-07-15T11:33:53;4.70;;;1.85;;
63016;SDS011;50274;45.640;11.756;2022-07-15T11:36:21;4.88;;;1.63;;
63016;SDS011;50274;45.640;11.756;2022-07-15T11:38:48;4.57;;;1.83;;
63016;SDS011;50274;45.640;11.756;2022-07-15T11:41:14;5.13;;;1.90;;
63016;SDS011;50274;45.640;11.756;2022-07-15T11:43:59;4.87;;;2.27;;
63016;SDS011;50274;45.640;11.756;2022-07-15T11:46:55;5.50;;;1.85;;
63016;SDS011;50274;45.640;11.756;2022-07-15T11:49:29;5.35;;;1.90;;
63016;SDS011;50274;45.640;11.756;2022-07-15T11:51:56;7.10;;;2.30;;
63016;SDS011;50274;45.640;11.756;2022-07-15T11:54:23;5.43;;;1.98;;
63016;SDS011;50274;45.640;11.756;2022-07-15T11:56:58;4.50;;;2.00;;
63016;SDS011;50274;45.640;11.756;2022-07-15T11:59:25;3.55;;;1.55;;
63016;SDS011;50274;45.640;11.756;2022-07-15T12:02:01;6.25;;;2.10;;
63016;SDS011;50274;45.640;11.756;2022-07-15T12:04:34;5.18;;;1.95;;
63016;SDS011;50274;45.640;11.756;2022-07-15T12:07:00;4.30;;;1.88;;
63016;SDS011;50274;45.640;11.756;2022-07-15T12:09:37;5.17;;;2.10;;
63016;SDS011;50274;45.640;11.756;2022-07-15T12:12:05;4.80;;;1.80;;
63016;SDS011;50274;45.640;11.756;2022-07-15T12:14:31;4.85;;;2.05;;
63016;SDS011;50274;45.640;11.756;2022-07-15T12:16:56;4.50;;;1.90;;
63016;SDS011;50274;45.640;11.756;2022-07-15T12:19:27;5.43;;;2.00;;
63016;SDS011;50274;45.640;11.756;2022-07-15T12:22:00;6.60;;;2.10;;
63016;SDS011;50274;45.640;11.756;2022-07-15T12:27:10;6.25;;;2.13;;
63016;SDS011;50274;45.640;11.756;2022-07-15T12:29:37;5.25;;;2.80;;
63016;SDS011;50274;45.640;11.756;2022-07-15T12:32:06;5.22;;;2.85;;
63016;SDS011;50274;45.640;11.756;2022-07-15T12:35:07;6.20;;;2.70;;
63016;SDS011;50274;45.640;11.756;2022-07-15T12:40:00;5.68;;;2.50;;
63016;SDS011;50274;45.640;11.756;2022-07-15T12:42:48;6.95;;;2.50;;
63016;SDS011;50274;45.640;11.756;2022-07-15T12:50:33;4.60;;;2.40;;
63016;SDS011;50274;45.640;11.756;2022-07-15T12:53:01;6.32;;;2.53;;
63016;SDS011;50274;45.640;11.756;2022-07-15T12:55:29;5.78;;;2.70;;
63016;SDS011;50274;45.640;11.756;2022-07-15T12:58:07;7.38;;;2.75;;
63016;SDS011;50274;45.640;11.756;2022-07-15T13:00:34;6.40;;;2.63;;
63016;SDS011;50274;45.640;11.756;2022-07-15T13:03:08;5.05;;;2.60;;
63016;SDS011;50274;45.640;11.756;2022-07-15T13:05:35;5.90;;;2.75;;
63016;SDS011;50274;45.640;11.756;2022-07-15T13:08:06;5.45;;;2.75;;
63016;SDS011;50274;45.640;11.756;2022-07-15T13:10:36;5.00;;;2.95;;
63016;SDS011;50274;45.640;11.756;2022-07-15T13:13:04;8.53;;;3.00;;
63016;SDS011;50274;45.640;11.756;2022-07-15T13:15:30;6.05;;;2.70;;
63016;SDS011;50274;45.640;11.756;2022-07-15T13:17:57;10.05;;;2.97;;
63016;SDS011;50274;45.640;11.756;2022-07-15T13:20:24;9.43;;;3.10;;
63016;SDS011;50274;45.640;11.756;2022-07-15T13:22:50;8.50;;;3.20;;
63016;SDS011;50274;45.640;11.756;2022-07-15T13:25:16;9.17;;;3.07;;
63016;SDS011;50274;45.640;11.756;2022-07-15T13:27:43;12.00;;;3.10;;
63016;SDS011;50274;45.640;11.756;2022-07-15T13:30:11;7.65;;;2.85;;
63016;SDS011;50274;45.640;11.756;2022-07-15T13:32:38;5.65;;;2.80;;
63016;SDS011;50274;45.640;11.756;2022-07-15T13:35:04;8.52;;;2.85;;
63016;SDS011;50274;45.640;11.756;2022-07-15T13:37:31;6.03;;;2.50;;
63016;SDS011;50274;45.640;11.756;2022-07-15T13:39:57;5.68;;;2.45;;
63016;SDS011;50274;45.640;11.756;2022-07-15T13:42:23;4.53;;;2.20;;
63016;SDS011;50274;45.640;11.756;2022-07-15T13:44:50;6.32;;;2.30;;
63016;SDS011;50274;45.640;11.756;2022-07-15T13:47:16;7.10;;;2.53;;
63016;SDS011;50274;45.640;11.756;2022-07-15T13:49:43;5.43;;;2.50;;
63016;SDS011;50274;45.640;11.756;2022-07-15T13:52:27;5.70;;;2.20;;
63016;SDS011;50274;45.640;11.756;2022-07-15T13:54:53;5.72;;;2.17;;
63016;SDS011;50274;45.640;11.756;2022-07-15T13:57:19;5.30;;;2.20;;
63016;SDS011;50274;45.640;11.756;2022-07-15T13:59:44;5.38;;;2.00;;
63016;SDS011;50274;45.640;11.756;2022-07-15T14:02:10;9.25;;;2.30;;
63016;SDS011;50274;45.640;11.756;2022-07-15T14:04:36;6.70;;;2.30;;
63016;SDS011;50274;45.640;11.756;2022-07-15T14:07:02;4.97;;;1.90;;
63016;SDS011;50274;45.640;11.756;2022-07-15T14:09:28;5.20;;;2.15;;
63016;SDS011;50274;45.640;11.756;2022-07-15T14:11:54;4.50;;;1.70;;
63016;SDS011;50274;45.640;11.756;2022-07-15T14:14:20;5.47;;;1.60;;
63016;SDS011;50274;45.640;11.756;2022-07-15T14:16:47;5.70;;;1.55;;
63016;SDS011;50274;45.640;11.756;2022-07-15T14:19:14;4.70;;;1.90;;
63016;SDS011;50274;45.640;11.756;2022-07-15T14:21:40;4.32;;;1.70;;
63016;SDS011;50274;45.640;11.756;2022-07-15T14:24:06;5.23;;;1.57;;
63016;SDS011;50274;45.640;11.756;2022-07-15T14:26:32;6.65;;;1.92;;
63016;SDS011;50274;45.640;11.756;2022-07-15T14:28:58;3.85;;;1.40;;
63016;SDS011;50274;45.640;11.756;2022-07-15T14:31:23;3.87;;;1.20;;
63016;SDS011;50274;45.640;11.756;2022-07-15T14:33:49;6.63;;;1.50;;
63016;SDS011;50274;45.640;11.756;2022-07-15T14:36:16;6.70;;;1.75;;
63016;SDS011;50274;45.640;11.756;2022-07-15T14:38:42;3.92;;;1.60;;
63016;SDS011;50274;45.640;11.756;2022-07-15T14:41:08;5.47;;;1.33;;
63016;SDS011;50274;45.640;11.756;2022-07-15T14:43:34;4.93;;;1.63;;
63016;SDS011;50274;45.640;11.756;2022-07-15T14:46:00;3.92;;;1.30;;
63016;SDS011;50274;45.640;11.756;2022-07-15T14:48:26;4.85;;;1.30;;
63016;SDS011;50274;45.640;11.756;2022-07-15T14:50:53;5.15;;;1.70;;
63016;SDS011;50274;45.640;11.756;2022-07-15T14:53:19;5.97;;;1.70;;
63016;SDS011;50274;45.640;11.756;2022-07-15T14:55:45;3.40;;;1.38;;
63016;SDS011;50274;45.640;11.756;2022-07-15T14:58:11;4.07;;;1.40;;
63016;SDS011;50274;45.640;11.756;2022-07-15T15:00:41;7.28;;;2.00;;
63016;SDS011;50274;45.640;11.756;2022-07-15T15:03:07;5.80;;;1.55;;
63016;SDS011;50274;45.640;11.756;2022-07-15T15:05:34;4.37;;;1.30;;
63016;SDS011;50274;45.640;11.756;2022-07-15T15:08:00;5.50;;;1.42;;
63016;SDS011;50274;45.640;11.756;2022-07-15T15:10:26;6.47;;;1.30;;
63016;SDS011;50274;45.640;11.756;2022-07-15T15:12:52;4.85;;;1.30;;
63016;SDS011;50274;45.640;11.756;2022-07-15T15:15:19;3.73;;;1.40;;
63016;SDS011;50274;45.640;11.756;2022-07-15T15:17:47;3.55;;;1.20;;
63016;SDS011;50274;45.640;11.756;2022-07-15T15:20:13;3.88;;;1.50;;
63016;SDS011;50274;45.640;11.756;2022-07-15T15:22:39;6.60;;;1.20;;
63016;SDS011;50274;45.640;11.756;2022-07-15T15:25:05;4.87;;;1.33;;
63016;SDS011;50274;45.640;11.756;2022-07-15T15:27:32;6.00;;;1.38;;
63016;SDS011;50274;45.640;11.756;2022-07-15T15:29:59;5.68;;;1.50;;
63016;SDS011;50274;45.640;11.756;2022-07-15T15:32:25;5.78;;;1.48;;
63016;SDS011;50274;45.640;11.756;2022-07-15T15:34:51;5.15;;;1.25;;
63016;SDS011;50274;45.640;11.756;2022-07-15T15:37:17;5.13;;;1.30;;